createdAt,value
2022-10-23T00:01:46.259Z,97645.44
2022-10-23T00:04:15.227Z,97652.84
2022-10-23T00:06:43.097Z,97652.38
2022-10-23T00:09:12.608Z,97651.91
2022-10-23T00:11:39.680Z,97651.44
2022-10-23T00:14:07.942Z,97649.16
2022-10-23T00:16:34.814Z,97655.59
2022-10-23T00:19:01.931Z,97569.19
2022-10-23T00:21:28.594Z,97655.47
2022-10-23T00:23:55.500Z,97316.50
2022-10-23T00:26:22.125Z,97618.81
2022-10-23T00:28:51.601Z,97637.25
2022-10-23T00:31:19.341Z,97557.66
2022-10-23T00:33:46.551Z,97655.72
2022-10-23T00:36:15.572Z,97657.72
2022-10-23T00:38:43.728Z,97657.91
2022-10-23T00:41:15.962Z,97654.63
2022-10-23T00:44:01.622Z,97655.47
2022-10-23T00:46:29.283Z,97654.84
2022-10-23T00:48:56.626Z,97563.06
2022-10-23T00:51:24.588Z,97657.16
2022-10-23T00:54:01.203Z,97679.19
2022-10-23T00:56:44.926Z,97540.72
2022-10-23T00:59:12.244Z,97670.03
2022-10-23T01:01:38.999Z,97679.25
2022-10-23T01:04:07.432Z,97609.66
2022-10-23T01:07:02.147Z,97663.97
2022-10-23T01:09:37.701Z,97654.78
2022-10-23T01:12:28.816Z,97641.44
2022-10-23T01:15:26.525Z,97487.75
2022-10-23T01:18:17.020Z,97655.94
2022-10-23T01:21:05.054Z,97574.47
2022-10-23T01:23:43.823Z,97656.25
2022-10-23T01:26:30.434Z,97591.13
2022-10-23T01:29:19.709Z,97631.25
2022-10-23T01:31:53.805Z,97643.09
2022-10-23T01:34:30.323Z,97635.69
2022-10-23T01:37:01.293Z,97504.34
2022-10-23T01:39:34.037Z,97640.44
2022-10-23T01:42:09.614Z,97634.03
2022-10-23T01:44:57.346Z,97624.78
2022-10-23T01:47:28.476Z,97616.09
2022-10-23T01:50:05.954Z,97540.31
2022-10-23T01:52:33.677Z,97549.53
2022-10-23T01:55:03.408Z,97511.72
2022-10-23T01:57:34.790Z,97596.13
2022-10-23T02:00:12.103Z,97597.81
2022-10-23T02:02:52.402Z,97591.69
2022-10-23T02:05:28.636Z,97597.97
2022-10-23T02:07:57.987Z,97594.34
2022-10-23T02:10:41.872Z,97498.41
2022-10-23T02:13:33.777Z,97593.03
2022-10-23T02:16:09.776Z,97481.81
2022-10-23T02:18:41.930Z,97534.84
2022-10-23T02:21:21.267Z,97596.78
2022-10-23T02:23:52.551Z,97595.13
2022-10-23T02:26:30.021Z,97502.31
2022-10-23T02:29:21.169Z,97468.03
2022-10-23T02:31:47.808Z,97479.19
2022-10-23T02:34:16.621Z,97596.63
2022-10-23T02:36:43.360Z,97564.22
2022-10-23T02:39:10.001Z,97520.03
2022-10-23T02:42:04.142Z,97519.88
2022-10-23T02:45:07.992Z,97576.34
2022-10-23T02:48:03.766Z,97581.63
2022-10-23T02:51:00.815Z,97522.19
2022-10-23T02:53:44.428Z,97568.13
2022-10-23T02:56:14.098Z,97575.03
2022-10-23T02:58:56.623Z,97428.91
2022-10-23T03:01:36.384Z,97444.69
2022-10-23T03:04:06.164Z,97573.41
2022-10-23T03:06:33.164Z,97565.34
2022-10-23T03:09:04.114Z,97381.59
2022-10-23T03:11:30.809Z,97570.59
2022-10-23T03:13:57.482Z,97479.47
2022-10-23T03:16:24.478Z,97572.22
2022-10-23T03:18:54.532Z,97580.13
2022-10-23T03:21:21.589Z,97389.47
2022-10-23T03:23:51.993Z,97579.28
2022-10-23T03:26:24.489Z,97580.97
2022-10-23T03:28:51.091Z,97592.94
2022-10-23T03:31:20.330Z,97472.44
2022-10-23T03:33:49.182Z,97596.28
2022-10-23T03:36:15.757Z,97561.91
2022-10-23T03:38:44.032Z,97600.00
2022-10-23T03:41:10.811Z,97588.00
2022-10-23T03:43:37.443Z,97543.03
2022-10-23T03:46:09.084Z,97476.84
2022-10-23T03:48:38.198Z,97478.16
2022-10-23T03:51:06.402Z,97601.81
2022-10-23T03:53:33.225Z,97589.47
2022-10-23T03:56:02.243Z,97577.94
2022-10-23T03:58:28.875Z,97555.25
2022-10-23T04:00:55.916Z,97561.50
2022-10-23T04:03:22.959Z,97445.63
2022-10-23T04:05:52.198Z,97576.78
2022-10-23T04:08:21.420Z,97565.06
2022-10-23T04:10:50.831Z,97440.81
2022-10-23T04:13:20.903Z,97556.69
2022-10-23T04:15:51.922Z,97574.13
2022-10-23T04:18:19.165Z,97553.91
2022-10-23T04:20:50.365Z,97578.22
2022-10-23T04:23:17.758Z,97575.25
2022-10-23T04:25:49.272Z,97419.44
2022-10-23T04:28:15.875Z,97555.19
2022-10-23T04:30:42.546Z,97550.94
2022-10-23T04:33:12.113Z,97563.88
2022-10-23T04:35:38.684Z,97499.59
2022-10-23T04:38:05.322Z,97582.50
2022-10-23T04:40:32.000Z,97571.97
2022-10-23T04:42:59.375Z,97473.13
2022-10-23T04:45:26.289Z,97555.66
2022-10-23T04:47:56.215Z,97497.41
2022-10-23T04:50:24.344Z,97501.66
2022-10-23T04:53:11.199Z,97570.59
2022-10-23T04:55:58.358Z,97563.69
2022-10-23T04:58:45.164Z,97459.75
2022-10-23T05:01:11.929Z,97556.44
2022-10-23T05:03:38.981Z,97489.44
2022-10-23T05:06:06.088Z,97555.59
2022-10-23T05:08:58.962Z,97462.25
2022-10-23T05:11:44.745Z,97540.34
2022-10-23T05:14:11.370Z,97564.84
2022-10-23T05:16:44.920Z,97536.63
2022-10-23T05:19:16.308Z,97568.59
2022-10-23T05:21:45.610Z,97564.97
2022-10-23T05:24:12.427Z,97526.09
2022-10-23T05:26:38.952Z,97574.88
2022-10-23T05:29:07.761Z,97456.81
2022-10-23T05:31:35.429Z,97433.66
2022-10-23T05:34:13.298Z,97565.97
2022-10-23T05:36:43.606Z,97522.31
2022-10-23T05:39:10.514Z,97530.81
2022-10-23T05:41:37.481Z,97567.75
2022-10-23T05:44:04.100Z,97349.84
2022-10-23T05:46:49.206Z,97567.75
2022-10-23T05:49:36.135Z,97537.66
2022-10-23T05:52:29.003Z,97567.22
2022-10-23T05:55:18.901Z,97567.22
2022-10-23T05:57:56.179Z,97567.88
2022-10-23T06:00:41.951Z,97419.53
2022-10-23T06:03:28.489Z,97564.22
2022-10-23T06:05:55.104Z,97561.41
2022-10-23T06:08:24.365Z,97499.56
2022-10-23T06:10:51.441Z,97572.44
2022-10-23T06:13:19.014Z,97414.41
2022-10-23T06:15:46.285Z,97564.84
2022-10-23T06:18:19.718Z,97560.75
2022-10-23T06:21:09.637Z,97562.69
2022-10-23T06:23:38.046Z,97553.94
2022-10-23T06:26:24.394Z,97556.44
2022-10-23T06:28:58.937Z,97567.00
2022-10-23T06:31:27.685Z,97548.19
2022-10-23T06:33:57.556Z,97477.09
2022-10-23T06:36:24.842Z,97543.25
2022-10-23T06:38:56.232Z,97548.00
2022-10-23T06:41:29.234Z,97561.84
2022-10-23T06:43:56.000Z,97513.84
2022-10-23T06:46:30.140Z,97561.13
2022-10-23T06:49:16.132Z,97574.94
2022-10-23T06:51:47.246Z,97469.03
2022-10-23T06:54:15.196Z,97398.66
2022-10-23T06:56:47.964Z,97426.81
2022-10-23T06:59:17.728Z,97559.81
2022-10-23T07:01:44.811Z,97465.09
2022-10-23T07:04:13.649Z,97490.25
2022-10-23T07:06:42.449Z,97451.03
2022-10-23T07:09:10.279Z,97518.69
2022-10-23T07:11:56.837Z,97573.47
2022-10-23T07:14:34.762Z,97501.56
2022-10-23T07:17:02.898Z,97537.28
2022-10-23T07:19:29.530Z,97529.34
2022-10-23T07:21:57.822Z,97422.00
2022-10-23T07:24:40.097Z,97439.72
2022-10-23T07:27:30.866Z,97481.44
2022-10-23T07:30:01.074Z,97465.31
2022-10-23T07:32:33.258Z,97483.19
2022-10-23T07:35:18.762Z,97566.06
2022-10-23T07:38:02.858Z,97563.91
2022-10-23T07:40:32.770Z,97564.34
2022-10-23T07:42:59.631Z,97442.41
2022-10-23T07:45:26.233Z,97467.16
2022-10-23T07:47:53.588Z,97537.41
2022-10-23T07:50:23.919Z,97548.63
2022-10-23T07:52:50.525Z,97518.19
2022-10-23T07:55:17.922Z,97477.31
2022-10-23T07:57:50.833Z,97534.06
2022-10-23T08:00:26.786Z,97545.44
2022-10-23T08:03:02.374Z,97516.19
2022-10-23T08:05:32.167Z,97366.53
2022-10-23T08:08:01.245Z,97380.38
2022-10-23T08:10:29.057Z,97526.44
2022-10-23T08:12:55.714Z,97542.03
2022-10-23T08:15:40.130Z,97391.28
2022-10-23T08:18:17.523Z,97554.22
2022-10-23T08:20:47.138Z,97537.19
2022-10-23T08:23:17.811Z,97545.81
2022-10-23T08:25:45.594Z,97541.16
2022-10-23T08:28:13.863Z,97536.59
2022-10-23T08:30:50.487Z,97439.84
2022-10-23T08:33:17.856Z,97526.06
2022-10-23T08:35:44.497Z,97525.03
2022-10-23T08:38:11.298Z,97518.94
2022-10-23T08:40:47.940Z,97525.69
2022-10-23T08:43:46.262Z,97530.78
2022-10-23T08:46:42.298Z,97525.25
2022-10-23T08:49:30.577Z,97530.53
2022-10-23T08:52:13.278Z,97511.13
2022-10-23T08:54:54.806Z,97539.22
2022-10-23T08:57:24.151Z,97535.00
2022-10-23T09:00:04.686Z,97487.94
2022-10-23T09:02:42.291Z,97522.91
2022-10-23T09:05:19.407Z,97532.84
2022-10-23T09:07:55.003Z,97523.38
2022-10-23T09:10:33.163Z,97527.69
2022-10-23T09:13:32.641Z,97399.22
2022-10-23T09:16:14.294Z,97526.78
2022-10-23T09:18:42.152Z,97467.84
2022-10-23T09:21:11.844Z,97503.59
2022-10-23T09:23:38.565Z,97522.03
2022-10-23T09:26:14.538Z,97517.25
2022-10-23T09:28:52.718Z,97512.19
2022-10-23T09:31:19.711Z,97477.69
2022-10-23T09:34:01.466Z,97510.19
2022-10-23T09:36:29.258Z,97502.25
2022-10-23T09:39:00.433Z,97491.03
2022-10-23T09:41:31.160Z,97488.59
2022-10-23T09:44:23.709Z,97490.69
2022-10-23T09:46:54.742Z,97490.31
2022-10-23T09:49:30.048Z,97496.63
2022-10-23T09:52:08.378Z,97494.97
2022-10-23T09:54:39.323Z,97436.13
2022-10-23T09:57:31.947Z,97497.31
2022-10-23T10:00:16.500Z,97349.13
2022-10-23T10:02:54.788Z,97466.81
2022-10-23T10:05:54.891Z,97406.53
2022-10-23T10:08:37.317Z,97496.91
2022-10-23T10:11:13.123Z,97496.91
2022-10-23T10:14:11.956Z,97442.53
2022-10-23T10:16:41.394Z,97498.53
2022-10-23T10:19:27.375Z,97491.34
2022-10-23T10:22:32.457Z,97499.97
2022-10-23T10:25:08.934Z,97499.56
2022-10-23T10:27:50.684Z,97380.44
2022-10-23T10:30:23.533Z,97496.72
2022-10-23T10:33:05.726Z,97396.81
2022-10-23T10:36:28.923Z,97479.19
2022-10-23T10:39:03.901Z,97469.97
2022-10-23T10:42:05.058Z,97315.13
2022-10-23T10:44:46.889Z,97449.19
2022-10-23T10:47:44.574Z,97335.03
2022-10-23T10:50:19.874Z,97447.34
2022-10-23T10:53:07.596Z,97449.84
2022-10-23T10:55:46.607Z,97440.84
2022-10-23T10:58:35.709Z,97444.53
2022-10-23T11:01:07.661Z,97455.97
2022-10-23T11:03:40.270Z,97433.66
2022-10-23T11:06:14.943Z,97296.53
2022-10-23T11:08:56.264Z,97406.88
2022-10-23T11:11:32.881Z,97359.75
2022-10-23T11:13:59.789Z,97417.91
2022-10-23T11:16:34.356Z,97401.16
2022-10-23T11:19:34.132Z,97403.38
2022-10-23T11:22:24.978Z,97396.88
2022-10-23T11:25:26.896Z,97392.56
2022-10-23T11:28:12.418Z,97390.91
2022-10-23T11:31:10.821Z,97377.84
2022-10-23T11:34:00.742Z,97378.06
2022-10-23T11:36:57.284Z,97370.13
2022-10-23T11:39:27.460Z,97358.44
2022-10-23T11:42:06.770Z,97356.63
2022-10-23T11:44:44.241Z,97352.09
2022-10-23T11:47:29.765Z,97178.19
2022-10-23T11:50:08.519Z,97353.31
2022-10-23T11:53:15.616Z,97358.22
2022-10-23T11:56:06.598Z,97348.03
2022-10-23T11:58:53.027Z,97354.75
2022-10-23T12:01:42.839Z,97347.81
2022-10-23T12:04:12.419Z,97362.94
2022-10-23T12:06:42.586Z,97334.38
2022-10-23T12:09:25.505Z,97233.88
2022-10-23T12:12:07.348Z,97346.66
2022-10-23T12:14:49.656Z,97334.97
2022-10-23T12:17:22.133Z,97343.56
2022-10-23T12:20:12.853Z,97331.09
2022-10-23T12:23:00.964Z,97313.97
2022-10-23T12:25:52.067Z,97335.75
2022-10-23T12:28:47.587Z,97309.41
2022-10-23T12:31:36.173Z,97304.66
2022-10-23T12:34:46.139Z,97302.59
2022-10-23T12:37:18.801Z,97304.19
2022-10-23T12:39:52.995Z,97297.03
2022-10-23T12:42:24.854Z,97234.19
2022-10-23T12:45:04.903Z,97264.81
2022-10-23T12:47:32.103Z,97273.69
2022-10-23T12:49:58.689Z,97250.47
2022-10-23T12:52:25.284Z,97299.91
2022-10-23T12:54:52.161Z,97282.91
2022-10-23T12:57:28.024Z,97276.13
2022-10-23T13:00:12.712Z,97282.28
2022-10-23T13:02:39.376Z,97074.19
2022-10-23T13:05:08.902Z,97193.34
2022-10-23T13:07:44.684Z,97294.66
2022-10-23T13:10:16.390Z,97265.09
2022-10-23T13:13:04.665Z,97277.13
2022-10-23T13:15:40.522Z,97267.72
2022-10-23T13:18:08.778Z,97252.97
2022-10-23T13:20:41.806Z,97247.22
2022-10-23T13:23:10.538Z,97250.06
2022-10-23T13:25:39.251Z,97210.50
2022-10-23T13:28:31.561Z,97247.72
2022-10-23T13:31:03.006Z,97134.88
2022-10-23T13:33:34.617Z,97241.34
2022-10-23T13:36:04.984Z,97248.72
2022-10-23T13:38:37.267Z,97241.56
2022-10-23T13:41:11.258Z,97237.03
2022-10-23T13:43:38.181Z,97196.88
2022-10-23T13:46:04.784Z,97158.69
2022-10-23T13:48:31.928Z,97131.38
2022-10-23T13:51:10.598Z,97176.91
2022-10-23T13:53:37.166Z,97217.19
2022-10-23T13:56:03.772Z,97202.34
2022-10-23T13:58:30.734Z,97221.78
2022-10-23T14:00:58.498Z,97212.81
2022-10-23T14:03:25.156Z,97184.81
2022-10-23T14:05:51.860Z,97218.38
2022-10-23T14:08:18.970Z,97219.38
2022-10-23T14:10:45.795Z,97163.00
2022-10-23T14:13:12.328Z,97163.63
2022-10-23T14:15:39.033Z,97225.75
2022-10-23T14:18:08.240Z,97190.75
2022-10-23T14:20:37.795Z,97230.22
2022-10-23T14:23:04.317Z,97225.53
2022-10-23T14:25:30.910Z,97217.75
2022-10-23T14:27:57.440Z,97169.50
2022-10-23T14:30:24.142Z,97090.78
2022-10-23T14:32:52.248Z,97167.59
2022-10-23T14:35:18.940Z,97224.13
2022-10-23T14:37:45.847Z,97225.84
2022-10-23T14:40:12.726Z,97213.56
2022-10-23T14:42:39.305Z,97221.81
2022-10-23T14:45:06.520Z,97086.03
2022-10-23T14:47:33.130Z,97219.41
2022-10-23T14:49:59.791Z,97097.06
2022-10-23T14:52:26.397Z,97208.00
2022-10-23T14:54:53.703Z,97091.81
2022-10-23T14:57:22.016Z,97186.69
2022-10-23T14:59:49.911Z,97158.81
2022-10-23T15:02:17.330Z,97210.38
2022-10-23T15:04:43.896Z,97206.94
2022-10-23T15:07:10.473Z,97202.50
2022-10-23T15:09:37.429Z,97198.22
2022-10-23T15:12:04.346Z,97100.47
2022-10-23T15:14:31.062Z,97049.59
2022-10-23T15:16:57.823Z,97179.16
2022-10-23T15:19:24.762Z,97189.53
2022-10-23T15:21:52.402Z,97077.91
2022-10-23T15:24:20.637Z,97122.94
2022-10-23T15:26:48.384Z,96999.16
2022-10-23T15:29:15.211Z,97187.19
2022-10-23T15:31:42.979Z,97155.16
2022-10-23T15:34:12.008Z,97065.75
2022-10-23T15:36:38.911Z,97181.06
2022-10-23T15:39:08.897Z,97133.19
2022-10-23T15:41:38.775Z,97184.72
2022-10-23T15:44:06.828Z,97183.72
2022-10-23T15:46:34.083Z,97179.66
2022-10-23T15:49:00.754Z,97139.50
2022-10-23T15:51:28.206Z,97075.53
2022-10-23T15:53:56.858Z,97115.06
2022-10-23T15:56:24.344Z,97070.66
2022-10-23T15:58:50.960Z,97156.44
2022-10-23T16:01:18.214Z,97028.81
2022-10-23T16:03:45.006Z,97146.44
2022-10-23T16:06:13.739Z,97175.78
2022-10-23T16:08:40.373Z,97178.22
2022-10-23T16:11:15.199Z,97176.34
2022-10-23T16:13:42.847Z,97141.44
2022-10-23T16:16:09.752Z,97003.63
2022-10-23T16:18:36.555Z,97141.38
2022-10-23T16:21:03.168Z,97167.25
2022-10-23T16:23:29.740Z,97142.16
2022-10-23T16:25:56.313Z,97165.59
2022-10-23T16:28:22.854Z,97044.66
2022-10-23T16:30:49.402Z,97027.88
2022-10-23T16:33:15.922Z,97163.91
2022-10-23T16:35:42.506Z,97163.28
2022-10-23T16:38:15.962Z,97097.59
2022-10-23T16:40:42.514Z,97159.38
2022-10-23T16:43:28.609Z,97159.34
2022-10-23T16:46:15.818Z,97119.56
2022-10-23T16:48:42.878Z,96964.13
2022-10-23T16:51:12.000Z,97169.50
2022-10-23T16:53:38.935Z,97169.69
2022-10-23T16:56:07.386Z,97133.34
2022-10-23T16:58:34.708Z,97178.63
2022-10-23T17:01:06.830Z,97093.50
2022-10-23T17:03:38.372Z,97178.63
2022-10-23T17:06:08.832Z,97169.28
2022-10-23T17:08:37.766Z,97049.28
2022-10-23T17:11:36.711Z,97168.84
2022-10-23T17:14:03.357Z,97175.16
2022-10-23T17:16:40.452Z,97158.47
2022-10-23T17:19:20.829Z,97033.22
2022-10-23T17:21:56.066Z,97160.91
2022-10-23T17:24:23.074Z,97161.75
2022-10-23T17:26:49.894Z,97163.56
2022-10-23T17:29:16.849Z,97056.66
2022-10-23T17:31:46.334Z,97025.44
2022-10-23T17:34:15.395Z,97153.78
2022-10-23T17:36:44.717Z,97155.78
2022-10-23T17:39:13.984Z,97143.78
2022-10-23T17:41:41.358Z,97150.28
2022-10-23T17:44:08.142Z,97057.59
2022-10-23T17:46:34.734Z,97008.78
2022-10-23T17:49:03.332Z,97148.34
2022-10-23T17:51:32.384Z,97141.63
2022-10-23T17:54:05.228Z,97133.09
2022-10-23T17:56:33.834Z,97076.75
2022-10-23T17:59:03.853Z,97140.78
2022-10-23T18:01:31.615Z,97149.72
2022-10-23T18:04:04.042Z,97140.38
2022-10-23T18:06:35.313Z,97143.28
2022-10-23T18:09:03.438Z,97147.03
2022-10-23T18:11:33.097Z,97145.53
2022-10-23T18:16:33.546Z,97039.22
2022-10-23T18:19:01.522Z,97152.44
2022-10-23T18:21:28.427Z,97156.25
2022-10-23T18:23:54.953Z,97154.66
2022-10-23T18:26:27.955Z,97048.09
2022-10-23T18:28:57.683Z,97151.38
2022-10-23T18:31:27.073Z,97142.19
2022-10-23T18:34:15.564Z,97139.75
2022-10-23T18:36:42.188Z,97139.31
2022-10-23T18:39:13.199Z,97134.22
2022-10-23T18:41:43.354Z,97143.97
2022-10-23T18:44:11.208Z,97149.44
2022-10-23T18:46:37.937Z,97045.97
2022-10-23T18:49:04.999Z,97156.31
2022-10-23T18:51:34.730Z,97154.66
2022-10-23T18:54:03.664Z,97088.97
2022-10-23T18:56:30.280Z,97127.94
2022-10-23T18:58:59.416Z,97135.56
2022-10-23T19:01:28.265Z,97118.09
2022-10-23T19:06:29.858Z,97097.56
2022-10-23T19:08:57.064Z,97087.00
2022-10-23T19:11:25.559Z,97085.78
2022-10-23T19:13:52.373Z,97042.00
2022-10-23T19:16:30.491Z,97060.63
2022-10-23T19:19:00.334Z,97068.34
2022-10-23T19:21:31.666Z,97019.81
2022-10-23T19:24:02.625Z,97022.66
2022-10-23T19:26:30.719Z,97052.50
2022-10-23T19:28:57.983Z,96939.78
2022-10-23T19:31:26.752Z,97050.06
2022-10-23T19:33:53.804Z,97058.78
2022-10-23T19:36:23.444Z,97019.59
2022-10-23T19:38:51.170Z,97082.38
2022-10-23T19:41:18.783Z,97004.16
2022-10-23T19:43:45.591Z,97062.44
2022-10-23T19:46:12.366Z,97027.91
2022-10-23T19:48:44.201Z,97105.75
2022-10-23T19:51:12.760Z,97040.47
2022-10-23T19:53:40.785Z,96981.78
2022-10-23T19:56:09.544Z,96983.38
2022-10-23T19:58:36.257Z,97122.28
2022-10-23T20:01:15.276Z,97128.97
2022-10-23T20:03:45.499Z,97134.06
2022-10-23T20:06:14.851Z,97001.50
2022-10-23T20:08:41.880Z,97064.94
2022-10-23T20:11:10.164Z,97055.59
2022-10-23T20:13:36.821Z,97030.19
2022-10-23T20:16:03.414Z,97152.78
2022-10-23T20:18:30.867Z,97118.47
2022-10-23T20:21:00.381Z,97164.81
2022-10-23T20:23:27.121Z,97064.25
2022-10-23T20:25:53.649Z,97164.44
2022-10-23T20:28:21.637Z,97160.78
2022-10-23T20:30:48.253Z,97057.56
2022-10-23T20:33:14.834Z,97134.31
2022-10-23T20:35:42.509Z,97175.50
2022-10-23T20:38:09.929Z,97179.75
2022-10-23T20:40:36.595Z,97103.59
2022-10-23T20:43:03.444Z,97171.88
2022-10-23T20:45:33.663Z,96997.22
2022-10-23T20:48:00.197Z,97157.22
2022-10-23T20:50:27.945Z,97056.34
2022-10-23T20:52:54.498Z,97156.09
2022-10-23T20:55:21.034Z,97113.56
2022-10-23T20:57:48.077Z,97030.09
2022-10-23T21:00:15.597Z,97064.94
2022-10-23T21:02:43.986Z,97132.88
2022-10-23T21:05:12.592Z,97186.63
2022-10-23T21:07:39.287Z,97193.72
2022-10-23T21:10:06.376Z,97044.16
2022-10-23T21:12:32.919Z,97182.09
2022-10-23T21:14:59.499Z,97210.84
2022-10-23T21:17:26.328Z,97220.19
2022-10-23T21:19:52.860Z,97199.00
2022-10-23T21:22:19.559Z,97218.59
2022-10-23T21:24:46.668Z,97216.16
2022-10-23T21:27:15.044Z,97225.28
2022-10-23T21:29:41.665Z,97102.41
2022-10-23T21:32:08.231Z,97147.38
2022-10-23T21:34:34.814Z,97221.66
2022-10-23T21:37:17.892Z,97156.31
2022-10-23T21:39:44.696Z,97207.16
2022-10-23T21:42:13.193Z,97212.47
2022-10-23T21:44:40.095Z,97189.66
2022-10-23T21:47:06.828Z,97225.25
2022-10-23T21:49:33.448Z,97220.78
2022-10-23T21:52:00.082Z,97234.97
2022-10-23T21:54:27.377Z,97130.19
2022-10-23T21:56:54.229Z,97248.81
2022-10-23T21:59:24.802Z,97239.91
2022-10-23T22:01:52.827Z,97149.59
2022-10-23T22:04:20.121Z,97244.56
2022-10-23T22:06:48.617Z,97235.81
2022-10-23T22:09:19.117Z,97099.91
2022-10-23T22:11:46.052Z,97147.63
2022-10-23T22:14:12.646Z,97255.94
2022-10-23T22:16:39.250Z,97246.19
2022-10-23T22:19:05.850Z,97129.34
2022-10-23T22:21:32.438Z,97088.44
2022-10-23T22:24:01.132Z,97267.72
2022-10-23T22:26:36.789Z,97176.75
2022-10-23T22:29:09.680Z,97257.31
2022-10-23T22:31:37.480Z,97276.28
2022-10-23T22:34:18.509Z,97208.94
2022-10-23T22:36:52.929Z,97282.75
2022-10-23T22:39:19.572Z,97202.84
2022-10-23T22:41:47.480Z,97175.13
2022-10-23T22:44:14.773Z,97279.81
2022-10-23T22:46:42.305Z,97272.91
2022-10-23T22:49:08.878Z,97247.34
2022-10-23T22:51:36.735Z,97277.19
2022-10-23T22:54:03.300Z,97134.78
2022-10-23T22:56:30.719Z,97287.75
2022-10-23T22:58:58.066Z,97064.22
2022-10-23T23:01:36.219Z,97300.13
2022-10-23T23:04:13.870Z,97208.09
2022-10-23T23:06:49.558Z,97299.13
2022-10-23T23:09:18.073Z,97293.66
2022-10-23T23:11:51.770Z,97103.66
2022-10-23T23:14:23.119Z,97291.03
2022-10-23T23:16:52.001Z,97289.38
2022-10-23T23:19:18.755Z,97279.00
2022-10-23T23:21:45.310Z,97142.69
2022-10-23T23:24:12.171Z,97293.59
2022-10-23T23:26:38.850Z,97258.34
2022-10-23T23:29:05.634Z,97305.22
2022-10-23T23:31:32.242Z,97320.63
2022-10-23T23:33:58.805Z,97287.34
2022-10-23T23:36:27.075Z,97212.03
2022-10-23T23:38:55.089Z,97287.06
2022-10-23T23:41:22.257Z,97301.41
2022-10-23T23:43:49.330Z,97297.38
2022-10-23T23:46:16.507Z,97190.72
2022-10-23T23:48:47.421Z,97291.25
2022-10-23T23:51:19.935Z,97301.00
2022-10-23T23:53:47.290Z,97291.25
2022-10-23T23:56:13.907Z,97245.25
2022-10-23T23:58:40.592Z,97274.19
